Time;durP1;ratioP1;P1;durP2;ratioP2;P2;SDS_P1;SDS_P2;PMS_P1;PMS_P2;Temp;Humidity;BMP_temperature;BMP_pressure;BME280_temperature;BME280_humidity;BME280_pressure;Samples;Min_cycle;Max_cycle;Signal;HPM_P1;HPM_P2
2022/09/08 00:02:10;;;;;;;1.40;0.68;;;;;;;;;;5044143;28;20070;-85
2022/09/08 00:04:35;;;;;;;1.13;0.50;;;;;;;;;;5044605;28;20558;-85
2022/09/08 00:07:01;;;;;;;0.90;0.65;;;17.60;99.90;;;;;;5042890;28;20381;-85
2022/09/08 00:09:29;;;;;;;1.45;0.73;;;;;;;;;;5043406;28;20112;-86
2022/09/08 00:11:56;;;;;;;2.40;0.95;;;;;;;;;;5043320;28;20405;-83
2022/09/08 00:14:22;;;;;;;1.02;0.50;;;;;;;;;;5046637;28;20437;-86
2022/09/08 00:16:48;;;;;;;1.17;0.47;;;;;;;;;;5042864;28;20039;-84
2022/09/08 00:19:14;;;;;;;2.35;0.85;;;;;;;;;;5037133;28;20036;-85
2022/09/08 00:21:40;;;;;;;1.55;0.40;;;;;;;;;;5042055;28;20029;-84
2022/09/08 00:24:06;;;;;;;1.10;0.57;;;;;;;;;;5042026;28;20489;-85
2022/09/08 00:26:32;;;;;;;1.08;0.50;;;;;;;;;;5036564;28;20063;-85
2022/09/08 00:28:58;;;;;;;1.50;0.70;;;;;;;;;;5041148;28;20119;-86
2022/09/08 00:31:24;;;;;;;2.85;0.90;;;;;;;;;;5043996;28;20074;-84
2022/09/08 00:33:50;;;;;;;1.65;0.40;;;;;;;;;;5041194;28;20025;-85
2022/09/08 00:36:17;;;;;;;5.40;0.50;;;17.80;99.90;;;;;;5042719;28;20480;-85
2022/09/08 00:38:49;;;;;;;3.33;1.80;;;18.10;99.90;;;;;;5038652;28;23574;-85
2022/09/08 00:41:15;;;;;;;1.33;0.70;;;;;;;;;;5035635;28;20063;-85
2022/09/08 00:43:43;;;;;;;2.17;0.60;;;18.20;99.90;;;;;;5052750;28;20029;-84
2022/09/08 00:46:09;;;;;;;3.65;0.47;;;;;;;;;;5051569;28;20070;-84
2022/09/08 00:48:47;;;;;;;4.55;0.52;;;17.20;99.90;;;;;;5051994;28;20040;-86
2022/09/08 00:51:16;;;;;;;0.90;0.47;;;17.80;99.90;;;;;;5052509;28;20037;-85
2022/09/08 00:53:42;;;;;;;2.30;1.05;;;;;;;;;;5049205;28;20048;-88
2022/09/08 00:56:08;;;;;;;1.50;0.55;;;;;;;;;;5052727;28;20041;-84
2022/09/08 00:58:36;;;;;;;1.15;0.50;;;18.40;99.90;;;;;;5046542;28;20051;-85
2022/09/08 01:01:06;;;;;;;1.45;0.70;;;17.60;99.90;;;;;;5048273;28;20069;-85
2022/09/08 01:03:32;;;;;;;0.52;0.30;;;17.60;99.90;;;;;;5047414;28;20029;-85
2022/09/08 01:06:11;;;;;;;1.10;0.57;;;18.10;99.90;;;;;;5042540;28;20032;-86
2022/09/08 01:14:43;;;;;;;2.45;0.75;;;17.20;99.90;;;;;;5049318;28;20032;-85
2022/09/08 01:17:30;;;;;;;1.27;0.43;;;17.50;99.90;;;;;;5045950;28;20501;-85
2022/09/08 01:19:58;;;;;;;0.88;0.47;;;17.40;99.90;;;;;;5041022;28;20041;-85
2022/09/08 01:23:00;;;;;;;1.20;0.70;;;18.20;99.90;;;;;;5046176;28;20044;-86
2022/09/08 01:25:53;;;;;;;1.13;0.50;;;17.80;99.90;;;;;;5041622;28;20543;-87
2022/09/08 01:28:19;;;;;;;0.77;0.45;;;;;;;;;;5045239;28;20291;-88
2022/09/08 01:30:46;;;;;;;1.70;0.60;;;17.40;99.90;;;;;;5047338;28;20021;-85
2022/09/08 01:33:14;;;;;;;1.15;0.50;;;17.70;99.90;;;;;;5045998;28;20047;-86
2022/09/08 01:35:40;;;;;;;1.15;0.65;;;17.10;99.90;;;;;;5047900;28;20078;-85
2022/09/08 01:38:07;;;;;;;1.30;0.60;;;17.60;99.90;;;;;;5049527;28;20041;-86
2022/09/08 01:40:33;;;;;;;2.42;0.95;;;17.60;99.90;;;;;;5050557;28;20074;-86
2022/09/08 01:42:59;;;;;;;1.55;0.63;;;;;;;;;;5048761;28;20045;-85
2022/09/08 01:45:27;;;;;;;6.00;1.17;;;18.60;99.90;;;;;;5049807;28;20616;-85
2022/09/08 01:47:53;;;;;;;3.53;0.57;;;;;;;;;;5048796;28;20060;-85
2022/09/08 01:50:19;;;;;;;2.22;0.77;;;;;;;;;;5049504;28;20037;-84
2022/09/08 01:52:46;;;;;;;0.98;0.47;;;;;;;;;;5048555;28;20082;-88
2022/09/08 01:55:11;;;;;;;3.92;0.82;;;17.30;99.90;;;;;;5048208;28;20029;-85
2022/09/08 01:57:37;;;;;;;3.28;0.50;;;17.50;99.90;;;;;;5042506;28;20040;-85
2022/09/08 02:00:05;;;;;;;1.85;0.57;;;17.60;99.90;;;;;;5044832;28;20109;-86
2022/09/08 02:02:31;;;;;;;3.65;0.47;;;;;;;;;;5039960;28;20033;-84
2022/09/08 02:04:57;;;;;;;2.90;0.60;;;;;;;;;;5042965;28;20472;-84
2022/09/08 02:07:22;;;;;;;1.17;0.45;;;;;;;;;;5043156;28;20531;-85
2022/09/08 02:09:48;;;;;;;1.38;0.45;;;;;;;;;;5042051;28;20056;-88
2022/09/08 02:12:14;;;;;;;3.00;0.70;;;18.00;99.90;;;;;;5043261;28;20021;-87
2022/09/08 02:14:40;;;;;;;0.85;0.32;;;;;;;;;;5042998;28;20116;-86
2022/09/08 02:17:06;;;;;;;1.65;0.70;;;;;;;;;;5046782;28;20052;-87
2022/09/08 02:19:32;;;;;;;0.30;0.30;;;;;;;;;;5056156;28;20025;-84
2022/09/08 02:21:58;;;;;;;0.70;0.40;;;;;;;;;;5057876;28;20354;-86
2022/09/08 02:24:24;;;;;;;0.90;0.45;;;;;;;;;;5039276;28;20607;-85
2022/09/08 02:26:49;;;;;;;1.02;0.43;;;19.10;99.90;;;;;;5032551;28;20032;-84
2022/09/08 02:29:15;;;;;;;1.27;0.38;;;;;;;;;;5047455;28;20051;-87
2022/09/08 02:31:41;;;;;;;1.90;0.70;;;;;;;;;;5041795;28;20542;-87
2022/09/08 02:34:07;;;;;;;0.45;0.20;;;;;;;;;;5044427;28;20032;-84
2022/09/08 02:36:33;;;;;;;0.88;0.40;;;;;;;;;;5040707;28;20032;-85
2022/09/08 02:38:59;;;;;;;0.60;0.35;;;;;;;;;;5043825;28;20135;-86
2022/09/08 02:41:26;;;;;;;4.50;0.30;;;19.50;99.90;;;;;;5043786;28;20120;-86
2022/09/08 02:43:53;;;;;;;1.15;0.40;;;;;;;;;;5045094;28;20028;-86
2022/09/08 02:46:19;;;;;;;1.20;0.47;;;21.70;99.90;;;;;;5045508;28;20032;-84
2022/09/08 02:48:45;;;;;;;2.55;0.50;;;19.40;99.90;;;;;;5042304;28;20505;-87
2022/09/08 02:51:14;;;;;;;0.90;0.32;;;18.80;99.90;;;;;;5045229;28;20132;-87
2022/09/08 02:53:41;;;;;;;0.73;0.68;;;19.50;99.90;;;;;;5046906;28;20079;-84
2022/09/08 02:56:07;;;;;;;2.40;0.40;;;20.00;99.90;;;;;;5045288;28;20030;-85
2022/09/08 02:58:34;;;;;;;2.05;0.47;;;19.10;99.90;;;;;;5046630;28;20450;-86
2022/09/08 03:01:00;;;;;;;0.60;0.30;;;19.10;99.90;;;;;;5044204;28;20057;-85
2022/09/08 03:03:27;;;;;;;0.47;0.20;;;18.30;99.90;;;;;;5042937;28;22466;-84
2022/09/08 03:05:53;;;;;;;1.58;0.60;;;;;;;;;;5047215;28;20070;-85
2022/09/08 03:08:21;;;;;;;1.17;0.22;;;18.40;99.90;;;;;;5044265;28;20059;-86
2022/09/08 03:10:48;;;;;;;0.40;0.25;;;;;;;;;;5044152;28;20051;-85
2022/09/08 03:13:14;;;;;;;1.17;0.40;;;;;;;;;;5043528;28;20029;-84
2022/09/08 03:15:41;;;;;;;1.30;0.20;;;;;;;;;;5037738;28;20021;-85
2022/09/08 03:18:07;;;;;;;0.38;0.22;;;;;;;;;;5044154;28;20032;-85
2022/09/08 03:20:34;;;;;;;0.90;0.20;;;18.50;99.90;;;;;;5042977;28;20147;-86
2022/09/08 03:23:00;;;;;;;0.57;0.30;;;19.10;99.90;;;;;;5043785;28;20028;-85
2022/09/08 03:25:26;;;;;;;0.98;0.30;;;18.80;99.90;;;;;;5040896;28;20031;-84
2022/09/08 03:27:52;;;;;;;1.60;0.40;;;;;;;;;;5039817;28;20029;-86
2022/09/08 03:30:19;;;;;;;1.55;0.50;;;;;;;;;;5036608;28;20025;-86
2022/09/08 03:32:46;;;;;;;0.63;0.30;;;16.90;99.90;;;;;;5044323;28;20025;-85
2022/09/08 03:35:14;;;;;;;1.17;0.50;;;19.20;99.90;;;;;;5034946;28;20389;-85
2022/09/08 03:37:41;;;;;;;0.38;0.20;;;18.50;99.90;;;;;;5043252;28;20029;-85
2022/09/08 03:40:11;;;;;;;1.85;0.45;;;;;;;;;;5046053;28;20063;-85
2022/09/08 03:42:39;;;;;;;3.33;0.20;;;18.00;99.90;;;;;;5040059;28;20079;-85
2022/09/08 03:45:08;;;;;;;0.10;0.10;;;18.70;99.90;;;;;;5041421;28;20098;-89
2022/09/08 03:47:34;;;;;;;1.55;0.22;;;19.40;99.90;;;;;;5044160;28;20033;-84
2022/09/08 03:50:00;;;;;;;0.30;0.20;;;;;;;;;;5041633;28;20074;-84
2022/09/08 03:52:26;;;;;;;0.77;0.20;;;;;;;;;;5045867;28;20041;-83
2022/09/08 03:54:52;;;;;;;0.50;0.20;;;;;;;;;;5040183;28;20028;-85
2022/09/08 03:57:22;;;;;;;0.32;0.20;;;19.00;99.90;;;;;;5035375;28;20116;-85
2022/09/08 03:59:49;;;;;;;2.00;0.30;;;19.40;99.90;;;;;;5045062;28;20075;-85
2022/09/08 04:02:16;;;;;;;0.60;0.32;;;18.00;99.90;;;;;;5033679;28;20277;-86
2022/09/08 04:04:42;;;;;;;0.90;0.40;;;;;;;;;;5038546;28;20025;-87
2022/09/08 04:07:09;;;;;;;0.80;0.40;;;;;;;;;;5042703;28;20028;-85
2022/09/08 04:09:35;;;;;;;0.80;0.50;;;;;;;;;;5041177;28;20097;-84
2022/09/08 04:12:01;;;;;;;2.47;0.43;;;;;;;;;;5039746;28;20025;-85
2022/09/08 04:14:27;;;;;;;0.25;0.20;;;18.80;99.90;;;;;;5045591;28;20025;-84
2022/09/08 04:16:54;;;;;;;0.88;0.35;;;;;;;;;;5047017;28;20083;-86
2022/09/08 04:19:19;;;;;;;0.55;0.30;;;18.80;99.90;;;;;;5041146;28;20040;-83
2022/09/08 04:21:45;;;;;;;3.88;0.40;;;;;;;;;;5038066;28;20021;-87
2022/09/08 04:24:11;;;;;;;0.60;0.20;;;;;;;;;;5039996;28;20032;-84
2022/09/08 04:26:37;;;;;;;0.90;0.30;;;18.00;99.90;;;;;;5046794;28;20059;-87
2022/09/08 04:29:03;;;;;;;0.55;0.30;;;;;;;;;;5043444;28;20037;-86
2022/09/08 04:31:29;;;;;;;2.85;0.30;;;;;;;;;;5040777;28;20021;-85
2022/09/08 04:33:55;;;;;;;0.50;0.20;;;18.90;99.90;;;;;;5045531;28;20033;-84
2022/09/08 04:36:23;;;;;;;0.50;0.17;;;17.30;99.90;;;;;;5041984;28;21510;-86
2022/09/08 04:38:49;;;;;;;2.17;0.30;;;;;;;;;;5043446;28;20052;-84
2022/09/08 04:41:16;;;;;;;0.25;0.20;;;18.00;99.90;;;;;;5044393;28;20037;-85
2022/09/08 04:43:42;;;;;;;1.48;0.57;;;18.20;99.90;;;;;;5040090;28;20178;-85
2022/09/08 04:46:12;;;;;;;1.30;0.20;;;18.00;99.90;;;;;;5038078;28;20623;-85
2022/09/08 04:48:38;;;;;;;1.30;0.30;;;18.00;99.90;;;;;;5045615;28;20029;-85
2022/09/08 04:51:05;;;;;;;3.90;0.45;;;17.60;99.90;;;;;;5041095;28;20021;-84
2022/09/08 04:53:32;;;;;;;0.65;0.45;;;17.70;99.90;;;;;;5043443;28;20086;-84
2022/09/08 04:55:58;;;;;;;0.40;0.20;;;;;;;;;;5039750;28;20174;-83
2022/09/08 04:58:24;;;;;;;0.30;0.30;;;;;;;;;;5043990;28;20748;-83
2022/09/08 05:00:50;;;;;;;0.82;0.40;;;17.30;99.90;;;;;;5041211;28;20446;-83
2022/09/08 05:03:16;;;;;;;0.88;0.30;;;;;;;;;;5039034;28;20029;-85
2022/09/08 05:05:42;;;;;;;1.25;0.40;;;18.50;99.90;;;;;;5042801;28;20040;-85
2022/09/08 05:08:08;;;;;;;0.50;0.20;;;;;;;;;;5045340;28;20122;-84
2022/09/08 05:10:34;;;;;;;0.57;0.30;;;17.80;99.90;;;;;;5039457;28;20982;-84
2022/09/08 05:13:01;;;;;;;0.55;0.20;;;17.60;99.90;;;;;;5041719;28;20115;-84
2022/09/08 05:15:27;;;;;;;0.47;0.15;;;;;;;;;;5037973;28;20032;-83
2022/09/08 05:17:53;;;;;;;0.93;0.32;;;;;;;;;;5042545;28;20040;-85
2022/09/08 05:20:19;;;;;;;0.57;0.20;;;;;;;;;;5038753;28;20063;-85
2022/09/08 05:22:45;;;;;;;0.55;0.30;;;;;;;;;;5042820;28;20107;-85
2022/09/08 05:25:11;;;;;;;0.85;0.25;;;;;;;;;;5039725;28;20028;-86
2022/09/08 05:27:37;;;;;;;0.73;0.40;;;;;;;;;;5042935;28;20032;-83
2022/09/08 05:30:03;;;;;;;2.08;0.22;;;;;;;;;;5039471;28;20023;-83
2022/09/08 05:32:29;;;;;;;0.80;0.30;;;;;;;;;;5040762;28;20036;-83
2022/09/08 05:34:55;;;;;;;3.00;0.35;;;;;;;;;;5043425;28;20074;-86
2022/09/08 05:37:21;;;;;;;3.45;0.65;;;;;;;;;;5039362;28;20100;-85
2022/09/08 05:39:47;;;;;;;0.70;0.30;;;;;;;;;;5045371;28;20047;-84
2022/09/08 05:42:13;;;;;;;1.15;0.22;;;17.40;99.90;;;;;;5045403;28;20036;-84
2022/09/08 05:44:39;;;;;;;0.38;0.20;;;;;;;;;;5038527;28;20039;-88
2022/09/08 05:47:05;;;;;;;0.30;0.17;;;;;;;;;;5040674;28;20045;-85
2022/09/08 05:49:31;;;;;;;0.80;0.30;;;;;;;;;;5043887;28;20545;-86
2022/09/08 05:51:58;;;;;;;2.33;0.60;;;18.20;99.90;;;;;;5039764;28;20029;-84
2022/09/08 05:54:24;;;;;;;0.50;0.30;;;17.30;99.90;;;;;;5046540;28;20033;-86
2022/09/08 05:56:50;;;;;;;1.75;0.57;;;;;;;;;;5043838;28;20386;-84
2022/09/08 05:59:17;;;;;;;1.42;0.55;;;17.80;99.90;;;;;;5045404;28;20668;-84
2022/09/08 06:01:44;;;;;;;1.67;0.40;;;;;;;;;;5034241;28;20112;-87
2022/09/08 06:04:10;;;;;;;1.40;0.38;;;18.10;99.90;;;;;;5039916;28;20520;-84
2022/09/08 06:06:36;;;;;;;1.23;0.40;;;;;;;;;;5049385;28;20059;-86
2022/09/08 06:09:04;;;;;;;2.63;0.75;;;17.70;99.90;;;;;;5043890;28;20037;-89
2022/09/08 06:11:32;;;;;;;0.40;0.20;;;18.00;99.90;;;;;;5046313;28;20032;-88
2022/09/08 06:13:58;;;;;;;0.80;0.40;;;;;;;;;;5049028;28;20033;-89
2022/09/08 06:16:25;;;;;;;0.47;0.30;;;;;;;;;;5045912;28;20025;-81
2022/09/08 06:18:51;;;;;;;0.43;0.20;;;;;;;;;;5049609;28;20041;-84
2022/09/08 06:21:21;;;;;;;4.65;0.77;;;18.70;99.90;;;;;;5046328;28;20511;-85
2022/09/08 06:23:52;;;;;;;0.20;0.17;;;17.70;99.90;;;;;;5044448;28;20036;-89
2022/09/08 06:26:50;;;;;;;1.27;0.30;;;18.00;99.90;;;;;;5038169;28;20018;-92
2022/09/08 06:29:48;;;;;;;0.50;0.20;;;17.60;99.90;;;;;;5018124;28;20448;-86
2022/09/08 06:32:22;;;;;;;0.45;0.20;;;18.30;99.90;;;;;;5044787;28;20122;-90
2022/09/08 06:35:10;;;;;;;1.42;0.38;;;17.80;99.90;;;;;;5043642;28;20026;-83
2022/09/08 06:37:36;;;;;;;1.23;0.30;;;;;;;;;;5046416;28;20045;-86
2022/09/08 06:40:10;;;;;;;0.82;0.30;;;18.60;99.90;;;;;;5040564;28;20400;-85
2022/09/08 06:42:36;;;;;;;0.55;0.20;;;;;;;;;;5045386;28;20112;-86
2022/09/08 06:45:02;;;;;;;1.35;0.43;;;17.80;99.90;;;;;;5044870;28;20117;-84
2022/09/08 06:47:37;;;;;;;0.30;0.20;;;18.60;99.90;;;;;;5036943;28;20090;-83
2022/09/08 06:50:06;;;;;;;1.35;0.30;;;17.60;99.90;;;;;;5043754;28;20064;-83
2022/09/08 06:52:43;;;;;;;0.47;0.30;;;18.50;99.90;;;;;;5047933;28;20059;-85
2022/09/08 06:55:28;;;;;;;0.35;0.17;;;18.20;99.90;;;;;;5039920;28;20037;-85
2022/09/08 06:58:16;;;;;;;1.17;0.25;;;18.70;99.90;;;;;;5041639;28;20044;-86
2022/09/08 07:01:13;;;;;;;0.57;0.32;;;17.60;99.90;;;;;;5033307;28;20025;-85
2022/09/08 07:04:06;;;;;;;5.20;0.30;;;18.40;99.90;;;;;;5041910;28;20080;-83
2022/09/08 07:06:47;;;;;;;0.30;0.20;;;18.80;99.90;;;;;;5044070;28;20478;-85
2022/09/08 07:09:47;;;;;;;3.30;0.30;;;18.80;99.90;;;;;;5035349;28;20018;-84
2022/09/08 07:12:20;;;;;;;0.77;0.30;;;17.80;99.90;;;;;;5023893;28;20038;-84
2022/09/08 07:14:46;;;;;;;0.85;0.35;;;;;;;;;;5035794;28;20033;-84
2022/09/08 07:17:26;;;;;;;0.68;0.20;;;17.60;99.90;;;;;;5040909;28;20033;-83
2022/09/08 07:19:55;;;;;;;0.50;0.30;;;18.60;99.90;;;;;;5042249;28;20068;-84
2022/09/08 07:22:32;;;;;;;0.32;0.10;;;18.40;99.90;;;;;;5035427;28;20026;-83
2022/09/08 07:25:08;;;;;;;0.60;0.30;;;17.90;99.90;;;;;;5044816;28;20087;-84
2022/09/08 07:27:35;;;;;;;0.35;0.10;;;17.90;99.90;;;;;;5041712;28;20033;-83
2022/09/08 07:30:04;;;;;;;1.60;0.70;;;19.00;99.90;;;;;;5042659;28;20120;-84
2022/09/08 07:32:32;;;;;;;0.38;0.20;;;17.80;99.90;;;;;;5038347;28;20033;-84
2022/09/08 07:35:11;;;;;;;0.40;0.17;;;18.50;99.90;;;;;;5044765;28;20218;-82
2022/09/08 07:37:37;;;;;;;0.32;0.20;;;;;;;;;;5043392;28;20786;-83
2022/09/08 07:40:37;;;;;;;1.85;0.28;;;18.20;99.90;;;;;;5045354;28;20048;-82
2022/09/08 07:43:09;;;;;;;0.25;0.20;;;;;;;;;;5040636;28;20036;-82
2022/09/08 07:45:42;;;;;;;0.20;0.20;;;17.80;99.90;;;;;;5039825;28;20049;-83
2022/09/08 07:48:34;;;;;;;0.25;0.10;;;18.40;99.90;;;;;;5044790;28;20907;-84
2022/09/08 07:51:05;;;;;;;0.17;0.10;;;18.10;99.90;;;;;;5038947;28;20079;-83
2022/09/08 07:54:02;;;;;;;1.90;0.20;;;17.60;99.90;;;;;;5037562;28;21026;-81
2022/09/08 07:57:00;;;;;;;0.60;0.10;;;18.00;99.90;;;;;;5042065;28;20064;-83
2022/09/08 07:59:38;;;;;;;0.40;0.30;;;18.10;99.90;;;;;;5036934;28;20063;-81
2022/09/08 08:02:29;;;;;;;0.55;0.30;;;18.10;99.90;;;;;;5037271;28;20021;-82
2022/09/08 08:05:01;;;;;;;0.55;0.25;;;17.80;99.90;;;;;;5033213;28;20534;-83
2022/09/08 08:07:34;;;;;;;1.10;0.60;;;;;;;;;;5039903;28;20022;-80
2022/09/08 08:10:16;;;;;;;0.60;0.20;;;17.30;99.90;;;;;;5038480;28;20040;-83
2022/09/08 08:12:53;;;;;;;0.40;0.10;;;18.40;99.90;;;;;;5032853;28;20819;-83
2022/09/08 08:15:20;;;;;;;0.40;0.15;;;17.90;99.90;;;;;;5037083;28;20040;-82
2022/09/08 08:18:04;;;;;;;0.20;0.10;;;17.40;99.90;;;;;;5039201;28;20726;-83
2022/09/08 08:20:50;;;;;;;3.13;0.13;;;17.60;99.90;;;;;;5034718;28;20108;-82
2022/09/08 08:23:18;;;;;;;0.32;0.10;;;18.80;99.90;;;;;;5032812;28;20140;-83
2022/09/08 08:26:22;;;;;;;1.05;0.20;;;18.60;99.90;;;;;;5038461;28;20099;-82
2022/09/08 08:28:58;;;;;;;0.30;0.10;;;18.10;99.90;;;;;;5038278;28;20033;-82
2022/09/08 08:31:49;;;;;;;0.20;0.10;;;18.80;99.90;;;;;;5034655;28;20037;-84
2022/09/08 08:34:32;;;;;;;0.20;0.10;;;19.60;99.90;;;;;;5034409;28;20071;-83
2022/09/08 08:37:03;;;;;;;0.55;0.20;;;19.30;99.90;;;;;;5036419;28;20033;-83
2022/09/08 08:39:33;;;;;;;0.00;0.00;;;19.50;99.90;;;;;;5026545;28;20048;-82
2022/09/08 08:42:11;;;;;;;0.15;0.10;;;19.20;99.90;;;;;;5029107;28;20117;-82
2022/09/08 08:45:07;;;;;;;0.25;0.10;;;19.40;99.90;;;;;;5027864;28;20103;-82
2022/09/08 08:48:00;;;;;;;1.05;0.30;;;19.30;99.90;;;;;;5040698;28;20021;-83
2022/09/08 08:50:59;;;;;;;1.38;0.08;;;19.30;99.90;;;;;;5037261;28;20036;-81
2022/09/08 08:53:31;;;;;;;0.40;0.10;;;19.70;99.90;;;;;;5032724;28;20585;-83
2022/09/08 08:56:29;;;;;;;0.52;0.30;;;19.50;99.90;;;;;;5035886;28;20393;-83
2022/09/08 08:59:00;;;;;;;0.77;0.15;;;;;;;;;;5040834;28;20046;-84
2022/09/08 09:01:26;;;;;;;0.32;0.20;;;;;;;;;;5038994;28;20326;-83
2022/09/08 09:04:12;;;;;;;0.52;0.10;;;20.90;99.90;;;;;;5034272;28;20029;-83
2022/09/08 09:06:38;;;;;;;0.40;0.10;;;;;;;;;;5038243;28;20044;-80
2022/09/08 09:09:50;;;;;;;0.20;0.10;;;21.50;99.90;;;;;;5038540;28;20047;-83
2022/09/08 09:12:28;;;;;;;0.70;0.20;;;21.90;99.90;;;;;;5033957;28;20036;-81
2022/09/08 09:15:26;;;;;;;0.20;0.10;;;21.40;99.90;;;;;;5043409;28;20021;-83
2022/09/08 09:18:27;;;;;;;0.55;0.20;;;22.60;99.90;;;;;;5031815;28;20048;-81
2022/09/08 09:20:59;;;;;;;0.22;0.10;;;21.20;99.90;;;;;;5042374;28;20040;-81
2022/09/08 09:23:52;;;;;;;0.10;0.10;;;21.70;99.90;;;;;;5039300;28;20486;-81
2022/09/08 09:26:20;;;;;;;0.30;0.10;;;21.90;99.90;;;;;;5043238;28;20051;-84
2022/09/08 09:29:08;;;;;;;0.20;0.10;;;21.50;99.90;;;;;;5034880;28;20428;-82
2022/09/08 09:32:08;;;;;;;0.73;0.08;;;21.90;99.90;;;;;;5030583;28;20040;-81
2022/09/08 09:34:54;;;;;;;0.20;0.05;;;22.20;99.90;;;;;;5039575;28;20037;-83
2022/09/08 09:37:50;;;;;;;0.22;0.10;;;21.30;99.90;;;;;;5042796;28;20037;-82
2022/09/08 09:40:36;;;;;;;0.00;0.00;;;22.90;99.90;;;;;;5041129;28;20047;-83
2022/09/08 09:43:33;;;;;;;5.03;0.10;;;22.40;99.90;;;;;;5037236;28;20080;-82
2022/09/08 09:46:13;;;;;;;0.13;0.13;;;22.40;99.90;;;;;;5046317;28;20029;-82
2022/09/08 09:49:10;;;;;;;0.00;0.00;;;21.90;99.90;;;;;;5039559;28;20025;-80
2022/09/08 09:51:36;;;;;;;0.17;0.10;;;;;;;;;;5041322;28;20045;-80
2022/09/08 09:54:29;;;;;;;0.15;0.15;;;21.80;99.90;;;;;;5036679;28;20025;-83
2022/09/08 09:56:55;;;;;;;0.20;0.00;;;;;;;;;;5040645;28;20098;-84
2022/09/08 09:59:32;;;;;;;0.45;0.30;;;22.60;99.20;;;;;;5036582;28;20135;-81
2022/09/08 10:02:29;;;;;;;0.50;0.22;;;21.70;97.90;;;;;;5037290;28;20060;-81
2022/09/08 10:05:30;;;;;;;2.08;0.20;;;22.00;99.90;;;;;;5041803;28;20017;-84
2022/09/08 10:08:34;;;;;;;1.08;0.20;;;21.30;98.20;;;;;;5038119;28;20080;-83
2022/09/08 10:11:36;;;;;;;1.38;0.30;;;22.00;99.30;;;;;;5041169;28;20021;-82
2022/09/08 10:14:23;;;;;;;0.57;0.35;;;21.00;99.80;;;;;;5039188;28;20037;-82
2022/09/08 10:17:07;;;;;;;0.30;0.20;;;21.30;99.00;;;;;;5044786;28;20044;-83
2022/09/08 10:20:00;;;;;;;0.68;0.43;;;21.20;98.60;;;;;;5043865;28;20039;-82
2022/09/08 10:22:42;;;;;;;1.25;0.22;;;21.10;98.60;;;;;;5035199;28;20072;-85
2022/09/08 10:25:57;;;;;;;0.65;0.20;;;21.80;99.90;;;;;;5043789;28;20041;-82
2022/09/08 10:28:23;;;;;;;0.22;0.10;;;;;;;;;;5041062;28;20047;-84
2022/09/08 10:31:20;;;;;;;0.20;0.10;;;21.60;98.60;;;;;;5041484;28;20347;-81
2022/09/08 10:34:01;;;;;;;0.30;0.20;;;21.90;98.80;;;;;;5025010;28;20198;-86
2022/09/08 10:36:57;;;;;;;2.13;0.20;;;22.00;98.70;;;;;;5043989;28;20045;-85
2022/09/08 10:39:57;;;;;;;0.40;0.20;;;22.30;97.80;;;;;;5043075;28;20040;-83
2022/09/08 10:42:30;;;;;;;1.27;0.15;;;;;;;;;;5027294;28;20041;-84
2022/09/08 10:45:30;;;;;;;0.43;0.20;;;22.50;96.90;;;;;;5036106;28;20576;-88
2022/09/08 10:48:33;;;;;;;0.63;0.10;;;21.10;97.60;;;;;;5040157;28;20048;-85
2022/09/08 10:51:14;;;;;;;0.20;0.10;;;22.20;97.40;;;;;;5038194;28;20473;-83
2022/09/08 10:54:28;;;;;;;1.92;0.17;;;21.90;99.30;;;;;;5045559;28;20041;-84
2022/09/08 10:56:58;;;;;;;0.15;0.08;;;21.50;98.60;;;;;;5032518;28;20068;-83
2022/09/08 10:59:35;;;;;;;0.30;0.25;;;21.90;98.00;;;;;;5037442;28;20091;-82
2022/09/08 11:02:16;;;;;;;1.75;0.20;;;21.30;98.60;;;;;;5039586;28;20025;-83
2022/09/08 11:04:42;;;;;;;0.20;0.13;;;;;;;;;;5040352;28;20157;-85
2022/09/08 11:07:32;;;;;;;0.25;0.10;;;21.70;99.90;;;;;;5043868;28;20136;-83
2022/09/08 11:10:22;;;;;;;1.00;0.30;;;21.70;99.50;;;;;;5036964;28;20093;-80
2022/09/08 11:12:49;;;;;;;0.70;0.20;;;;;;;;;;5038717;28;20412;-85
2022/09/08 11:15:45;;;;;;;0.25;0.15;;;20.80;97.30;;;;;;5041030;28;20233;-83
2022/09/08 11:18:36;;;;;;;1.70;0.30;;;21.30;98.50;;;;;;5035496;28;20048;-86
2022/09/08 11:21:16;;;;;;;0.45;0.10;;;21.10;98.80;;;;;;5036134;28;20037;-84
2022/09/08 11:24:12;;;;;;;0.65;0.10;;;20.60;99.90;;;;;;5046513;28;20035;-83
2022/09/08 11:26:48;;;;;;;0.65;0.20;;;21.80;97.80;;;;;;5043508;28;20033;-81
2022/09/08 11:29:15;;;;;;;0.50;0.20;;;21.50;99.40;;;;;;5040591;28;20028;-82
2022/09/08 11:31:53;;;;;;;0.20;0.10;;;20.50;98.50;;;;;;5033124;28;20021;-82
2022/09/08 11:34:35;;;;;;;0.40;0.20;;;20.90;98.00;;;;;;5044919;28;20025;-83
2022/09/08 11:37:20;;;;;;;0.30;0.20;;;21.60;97.30;;;;;;5046811;28;20111;-82
2022/09/08 11:40:01;;;;;;;1.30;0.08;;;20.90;99.90;;;;;;5045453;28;20040;-81
2022/09/08 11:43:06;;;;;;;1.45;0.10;;;21.80;96.00;;;;;;5048701;28;20029;-84
2022/09/08 11:45:52;;;;;;;4.05;0.20;;;21.10;97.30;;;;;;5053142;28;20037;-82
2022/09/08 11:48:17;;;;;;;0.60;0.20;;;;;;;;;;5046844;28;20508;-84
2022/09/08 11:50:51;;;;;;;0.65;0.10;;;22.40;97.10;;;;;;5044880;28;20064;-84
2022/09/08 11:53:17;;;;;;;1.95;0.38;;;;;;;;;;5041445;28;20028;-86
2022/09/08 11:55:55;;;;;;;2.97;0.10;;;;;;;;;;5044818;28;20598;-81
2022/09/08 11:58:35;;;;;;;0.30;0.10;;;22.10;99.90;;;;;;5042034;28;20041;-84
2022/09/08 12:01:00;;;;;;;0.20;0.10;;;;;;;;;;5048240;28;20049;-82
2022/09/08 12:03:41;;;;;;;1.33;0.13;;;21.70;95.30;;;;;;5040399;28;20563;-81
2022/09/08 12:06:07;;;;;;;0.50;0.25;;;;;;;;;;5038744;28;20025;-83
2022/09/08 12:09:05;;;;;;;0.10;0.10;;;21.90;95.20;;;;;;5034966;28;20040;-82
2022/09/08 12:11:41;;;;;;;0.10;0.00;;;22.20;99.90;;;;;;5045017;28;20048;-82
2022/09/08 12:14:32;;;;;;;0.98;0.20;;;22.00;96.00;;;;;;5043852;28;20476;-82
2022/09/08 12:17:13;;;;;;;0.10;0.10;;;22.30;98.50;;;;;;5049804;28;20025;-80
2022/09/08 12:19:46;;;;;;;0.15;0.10;;;22.30;96.10;;;;;;5044480;28;20075;-84
2022/09/08 12:22:38;;;;;;;0.20;0.00;;;22.40;94.50;;;;;;5040112;28;20025;-84
2022/09/08 12:25:11;;;;;;;2.08;0.10;;;;;;;;;;5038548;28;20044;-84
2022/09/08 12:28:25;;;;;;;1.60;0.43;;;21.50;93.20;;;;;;5039278;28;20062;-82
2022/09/08 12:31:13;;;;;;;0.65;0.10;;;21.50;92.70;;;;;;4983327;28;20661;-82
2022/09/08 12:33:57;;;;;;;0.10;0.10;;;22.20;93.50;;;;;;4981909;28;20018;-86
2022/09/08 12:36:40;;;;;;;0.20;0.05;;;21.80;94.50;;;;;;5028413;28;20041;-82
2022/09/08 12:39:27;;;;;;;3.17;0.20;;;21.50;93.20;;;;;;5042223;28;20037;-81
2022/09/08 12:42:07;;;;;;;1.10;0.28;;;22.50;92.70;;;;;;5040950;28;20033;-81
2022/09/08 12:45:11;;;;;;;0.20;0.08;;;22.80;93.20;;;;;;5045318;28;20528;-83
2022/09/08 12:47:49;;;;;;;0.30;0.10;;;22.40;92.30;;;;;;5045468;28;20021;-84
2022/09/08 12:50:41;;;;;;;0.25;0.00;;;22.70;92.30;;;;;;5043154;28;20029;-84
2022/09/08 12:53:29;;;;;;;2.28;0.47;;;22.50;93.40;;;;;;5043799;28;20025;-84
2022/09/08 12:56:21;;;;;;;0.80;0.20;;;22.60;91.80;;;;;;5043358;28;20052;-84
2022/09/08 12:59:08;;;;;;;0.60;0.20;;;22.40;91.80;;;;;;5016225;28;20099;-81
2022/09/08 13:01:42;;;;;;;1.35;0.13;;;22.20;92.10;;;;;;5040473;28;20436;-81
2022/09/08 13:04:38;;;;;;;0.70;0.28;;;22.00;99.90;;;;;;5045406;28;20055;-82
2022/09/08 13:07:27;;;;;;;0.30;0.10;;;22.20;92.50;;;;;;5041454;28;20053;-83
2022/09/08 13:10:36;;;;;;;3.50;0.13;;;21.60;93.20;;;;;;5043452;28;20042;-83
2022/09/08 13:13:02;;;;;;;0.20;0.00;;;;;;;;;;5039271;28;20032;-87
2022/09/08 13:15:34;;;;;;;0.65;0.20;;;22.10;99.40;;;;;;5047585;28;20033;-81
2022/09/08 13:18:05;;;;;;;0.10;0.00;;;22.30;99.10;;;;;;5043375;28;20413;-81
2022/09/08 13:20:38;;;;;;;0.10;0.00;;;22.50;92.30;;;;;;5043789;28;20021;-84
2022/09/08 13:23:10;;;;;;;2.75;0.13;;;22.50;98.60;;;;;;5041558;28;20120;-82
2022/09/08 13:25:44;;;;;;;3.35;0.20;;;22.90;91.20;;;;;;5043837;28;20036;-84
2022/09/08 13:28:10;;;;;;;0.93;0.22;;;;;;;;;;5044404;28;20040;-84
2022/09/08 13:31:05;;;;;;;0.80;0.17;;;22.70;89.90;;;;;;5042254;28;20029;-90
2022/09/08 13:33:31;;;;;;;0.30;0.10;;;;;;;;;;5039442;28;20412;-84
2022/09/08 13:36:15;;;;;;;0.32;0.10;;;22.30;90.20;;;;;;5041669;28;20025;-84
2022/09/08 13:38:59;;;;;;;0.45;0.10;;;22.90;90.00;;;;;;5046280;28;20069;-84
2022/09/08 13:42:03;;;;;;;0.40;0.10;;;23.60;86.90;;;;;;5043162;28;20044;-82
2022/09/08 13:44:40;;;;;;;1.75;0.20;;;23.60;86.30;;;;;;5043348;28;20464;-85
2022/09/08 13:47:27;;;;;;;0.75;0.25;;;23.80;94.80;;;;;;5043456;28;20033;-82
2022/09/08 13:50:19;;;;;;;2.17;0.20;;;23.80;84.40;;;;;;5046803;28;20040;-85
2022/09/08 13:52:57;;;;;;;3.10;0.17;;;23.00;84.50;;;;;;5043807;28;20134;-87
2022/09/08 13:55:41;;;;;;;0.28;0.08;;;23.30;95.00;;;;;;5047695;28;20029;-81
2022/09/08 13:58:29;;;;;;;0.68;0.10;;;23.30;83.90;;;;;;5054804;28;20052;-82
2022/09/08 14:00:59;;;;;;;4.93;0.10;;;23.50;95.00;;;;;;5046313;28;20025;-82
2022/09/08 14:03:29;;;;;;;1.85;0.20;;;22.80;95.30;;;;;;5048385;28;20024;-85
2022/09/08 14:05:55;;;;;;;2.53;0.40;;;;;;;;;;5048515;28;20478;-88
2022/09/08 14:08:27;;;;;;;0.43;0.00;;;23.50;86.70;;;;;;5054101;28;20033;-86
2022/09/08 14:11:05;;;;;;;7.05;0.17;;;22.30;83.50;;;;;;5044078;28;20036;-82
2022/09/08 14:13:32;;;;;;;0.65;0.00;;;23.30;84.60;;;;;;5050949;28;20036;-85